sensor_id;sensor_type;location;lat;lon;timestamp;P1;durP1;ratioP1;P2;durP2;ratioP2
25111;SDS011;13092;51.996;4.458;2023-12-28T00:01:30;45.70;;;41.70;;
25111;SDS011;13092;51.996;4.458;2023-12-28T00:03:58;48.17;;;44.08;;
25111;SDS011;13092;51.996;4.458;2023-12-28T00:06:31;47.80;;;43.47;;
25111;SDS011;13092;51.996;4.458;2023-12-28T00:09:07;47.65;;;43.45;;
25111;SDS011;13092;51.996;4.458;2023-12-28T00:11:38;47.80;;;43.50;;
25111;SDS011;13092;51.996;4.458;2023-12-28T00:14:11;48.75;;;44.45;;
25111;SDS011;13092;51.996;4.458;2023-12-28T00:16:41;47.92;;;43.83;;
25111;SDS011;13092;51.996;4.458;2023-12-28T00:19:09;47.08;;;42.63;;
25111;SDS011;13092;51.996;4.458;2023-12-28T00:21:40;48.58;;;44.22;;
25111;SDS011;13092;51.996;4.458;2023-12-28T00:24:11;49.10;;;44.80;;
25111;SDS011;13092;51.996;4.458;2023-12-28T00:26:41;47.13;;;43.03;;
25111;SDS011;13092;51.996;4.458;2023-12-28T00:29:11;45.35;;;41.38;;
25111;SDS011;13092;51.996;4.458;2023-12-28T00:31:41;46.33;;;42.33;;
25111;SDS011;13092;51.996;4.458;2023-12-28T00:34:11;46.17;;;42.28;;
25111;SDS011;13092;51.996;4.458;2023-12-28T00:36:41;46.75;;;42.55;;
25111;SDS011;13092;51.996;4.458;2023-12-28T00:39:11;46.40;;;42.05;;
25111;SDS011;13092;51.996;4.458;2023-12-28T00:41:45;46.65;;;42.75;;
25111;SDS011;13092;51.996;4.458;2023-12-28T00:44:20;46.95;;;42.75;;
25111;SDS011;13092;51.996;4.458;2023-12-28T00:47:02;47.95;;;43.65;;
25111;SDS011;13092;51.996;4.458;2023-12-28T00:49:40;46.08;;;42.17;;
25111;SDS011;13092;51.996;4.458;2023-12-28T00:52:17;48.60;;;44.47;;
25111;SDS011;13092;51.996;4.458;2023-12-28T00:54:47;48.15;;;44.20;;
25111;SDS011;13092;51.996;4.458;2023-12-28T00:57:20;47.80;;;43.70;;
25111;SDS011;13092;51.996;4.458;2023-12-28T00:59:51;47.05;;;43.15;;
25111;SDS011;13092;51.996;4.458;2023-12-28T01:02:29;46.83;;;42.92;;
25111;SDS011;13092;51.996;4.458;2023-12-28T01:04:59;45.53;;;41.63;;
25111;SDS011;13092;51.996;4.458;2023-12-28T01:07:42;45.78;;;41.90;;
25111;SDS011;13092;51.996;4.458;2023-12-28T01:10:18;46.75;;;42.85;;
25111;SDS011;13092;51.996;4.458;2023-12-28T01:12:47;45.85;;;41.92;;
25111;SDS011;13092;51.996;4.458;2023-12-28T01:15:16;46.85;;;42.95;;
25111;SDS011;13092;51.996;4.458;2023-12-28T01:17:49;47.80;;;43.70;;
25111;SDS011;13092;51.996;4.458;2023-12-28T01:20:20;47.65;;;43.65;;
25111;SDS011;13092;51.996;4.458;2023-12-28T01:22:50;47.78;;;43.67;;
25111;SDS011;13092;51.996;4.458;2023-12-28T01:25:18;49.47;;;45.30;;
25111;SDS011;13092;51.996;4.458;2023-12-28T01:27:46;47.40;;;43.40;;
25111;SDS011;13092;51.996;4.458;2023-12-28T01:30:15;46.17;;;42.17;;
25111;SDS011;13092;51.996;4.458;2023-12-28T01:32:44;47.17;;;43.28;;
25111;SDS011;13092;51.996;4.458;2023-12-28T01:35:12;46.10;;;42.28;;
25111;SDS011;13092;51.996;4.458;2023-12-28T01:37:42;47.28;;;43.45;;
25111;SDS011;13092;51.996;4.458;2023-12-28T01:40:14;49.50;;;45.20;;
25111;SDS011;13092;51.996;4.458;2023-12-28T01:42:47;49.67;;;45.58;;
25111;SDS011;13092;51.996;4.458;2023-12-28T01:45:17;50.10;;;46.00;;
25111;SDS011;13092;51.996;4.458;2023-12-28T01:47:45;49.97;;;45.97;;
25111;SDS011;13092;51.996;4.458;2023-12-28T01:50:19;47.65;;;43.75;;
25111;SDS011;13092;51.996;4.458;2023-12-28T01:52:48;49.08;;;44.70;;
25111;SDS011;13092;51.996;4.458;2023-12-28T01:55:22;49.35;;;45.35;;
25111;SDS011;13092;51.996;4.458;2023-12-28T01:57:51;48.28;;;44.38;;
25111;SDS011;13092;51.996;4.458;2023-12-28T02:00:21;50.17;;;46.05;;
25111;SDS011;13092;51.996;4.458;2023-12-28T02:02:50;48.42;;;44.45;;
25111;SDS011;13092;51.996;4.458;2023-12-28T02:05:19;48.92;;;44.97;;
25111;SDS011;13092;51.996;4.458;2023-12-28T02:07:48;49.63;;;45.25;;
25111;SDS011;13092;51.996;4.458;2023-12-28T02:10:19;46.97;;;43.10;;
25111;SDS011;13092;51.996;4.458;2023-12-28T02:12:53;49.05;;;45.05;;
25111;SDS011;13092;51.996;4.458;2023-12-28T02:15:24;48.85;;;44.95;;
25111;SDS011;13092;51.996;4.458;2023-12-28T02:17:58;51.97;;;46.13;;
25111;SDS011;13092;51.996;4.458;2023-12-28T02:20:42;47.35;;;43.55;;
25111;SDS011;13092;51.996;4.458;2023-12-28T02:23:11;49.45;;;45.35;;
25111;SDS011;13092;51.996;4.458;2023-12-28T02:25:42;48.40;;;44.42;;
25111;SDS011;13092;51.996;4.458;2023-12-28T02:28:11;48.33;;;44.38;;
25111;SDS011;13092;51.996;4.458;2023-12-28T02:30:39;48.45;;;44.60;;
25111;SDS011;13092;51.996;4.458;2023-12-28T02:33:11;50.58;;;46.38;;
25111;SDS011;13092;51.996;4.458;2023-12-28T02:35:51;49.83;;;45.55;;
25111;SDS011;13092;51.996;4.458;2023-12-28T02:38:23;50.00;;;46.10;;
25111;SDS011;13092;51.996;4.458;2023-12-28T02:40:57;48.78;;;44.88;;
25111;SDS011;13092;51.996;4.458;2023-12-28T02:43:26;48.88;;;44.97;;
25111;SDS011;13092;51.996;4.458;2023-12-28T02:45:54;48.05;;;43.88;;
25111;SDS011;13092;51.996;4.458;2023-12-28T02:48:23;49.53;;;45.47;;
25111;SDS011;13092;51.996;4.458;2023-12-28T02:50:52;48.28;;;44.42;;
25111;SDS011;13092;51.996;4.458;2023-12-28T02:53:23;48.40;;;44.28;;
25111;SDS011;13092;51.996;4.458;2023-12-28T02:55:54;49.05;;;44.63;;
25111;SDS011;13092;51.996;4.458;2023-12-28T02:58:24;47.38;;;43.47;;
25111;SDS011;13092;51.996;4.458;2023-12-28T03:00:52;47.83;;;43.83;;
25111;SDS011;13092;51.996;4.458;2023-12-28T03:03:21;48.88;;;44.78;;
25111;SDS011;13092;51.996;4.458;2023-12-28T03:05:49;47.13;;;43.33;;
25111;SDS011;13092;51.996;4.458;2023-12-28T03:08:18;45.60;;;41.88;;
25111;SDS011;13092;51.996;4.458;2023-12-28T03:10:47;48.45;;;44.30;;
25111;SDS011;13092;51.996;4.458;2023-12-28T03:13:16;47.65;;;43.85;;
25111;SDS011;13092;51.996;4.458;2023-12-28T03:15:46;48.72;;;44.65;;
25111;SDS011;13092;51.996;4.458;2023-12-28T03:18:14;47.58;;;43.70;;
25111;SDS011;13092;51.996;4.458;2023-12-28T03:20:43;47.92;;;43.95;;
25111;SDS011;13092;51.996;4.458;2023-12-28T03:23:12;48.42;;;44.42;;
25111;SDS011;13092;51.996;4.458;2023-12-28T03:28:23;46.75;;;42.72;;
25111;SDS011;13092;51.996;4.458;2023-12-28T03:30:53;46.95;;;43.08;;
25111;SDS011;13092;51.996;4.458;2023-12-28T03:33:25;47.97;;;43.88;;
25111;SDS011;13092;51.996;4.458;2023-12-28T03:35:55;48.28;;;44.42;;
25111;SDS011;13092;51.996;4.458;2023-12-28T03:38:23;47.00;;;42.63;;
25111;SDS011;13092;51.996;4.458;2023-12-28T03:40:51;45.72;;;42.08;;
25111;SDS011;13092;51.996;4.458;2023-12-28T03:43:27;45.75;;;42.13;;
25111;SDS011;13092;51.996;4.458;2023-12-28T03:45:56;47.67;;;43.83;;
25111;SDS011;13092;51.996;4.458;2023-12-28T03:48:27;47.58;;;43.88;;
25111;SDS011;13092;51.996;4.458;2023-12-28T03:51:02;46.45;;;42.90;;
25111;SDS011;13092;51.996;4.458;2023-12-28T03:53:45;47.45;;;43.85;;
25111;SDS011;13092;51.996;4.458;2023-12-28T03:56:27;47.33;;;43.63;;
25111;SDS011;13092;51.996;4.458;2023-12-28T03:59:01;47.65;;;44.05;;
25111;SDS011;13092;51.996;4.458;2023-12-28T04:01:48;48.28;;;44.58;;
25111;SDS011;13092;51.996;4.458;2023-12-28T04:04:34;49.08;;;44.88;;
25111;SDS011;13092;51.996;4.458;2023-12-28T04:07:09;48.92;;;45.08;;
25111;SDS011;13092;51.996;4.458;2023-12-28T04:09:42;48.28;;;44.40;;
25111;SDS011;13092;51.996;4.458;2023-12-28T04:12:31;47.35;;;43.65;;
25111;SDS011;13092;51.996;4.458;2023-12-28T04:15:10;46.90;;;43.00;;
25111;SDS011;13092;51.996;4.458;2023-12-28T04:17:56;47.05;;;43.35;;
25111;SDS011;13092;51.996;4.458;2023-12-28T04:21:00;47.22;;;43.42;;
25111;SDS011;13092;51.996;4.458;2023-12-28T04:23:25;47.22;;;43.53;;
25111;SDS011;13092;51.996;4.458;2023-12-28T04:25:58;46.78;;;43.17;;
25111;SDS011;13092;51.996;4.458;2023-12-28T04:28:42;47.20;;;43.53;;
25111;SDS011;13092;51.996;4.458;2023-12-28T04:31:50;46.50;;;42.35;;
25111;SDS011;13092;51.996;4.458;2023-12-28T04:34:45;47.13;;;43.50;;
25111;SDS011;13092;51.996;4.458;2023-12-28T04:37:21;45.85;;;42.35;;
25111;SDS011;13092;51.996;4.458;2023-12-28T04:40:01;46.92;;;43.33;;
25111;SDS011;13092;51.996;4.458;2023-12-28T04:42:43;47.85;;;44.05;;
25111;SDS011;13092;51.996;4.458;2023-12-28T04:45:23;47.20;;;43.25;;
25111;SDS011;13092;51.996;4.458;2023-12-28T04:48:00;47.10;;;42.95;;
25111;SDS011;13092;51.996;4.458;2023-12-28T04:50:37;49.95;;;46.03;;
25111;SDS011;13092;51.996;4.458;2023-12-28T04:53:39;51.55;;;47.45;;
25111;SDS011;13092;51.996;4.458;2023-12-28T04:56:22;50.90;;;46.17;;
25111;SDS011;13092;51.996;4.458;2023-12-28T04:59:06;50.50;;;46.38;;
25111;SDS011;13092;51.996;4.458;2023-12-28T05:01:44;49.08;;;44.78;;
25111;SDS011;13092;51.996;4.458;2023-12-28T05:04:28;48.40;;;44.17;;
25111;SDS011;13092;51.996;4.458;2023-12-28T05:07:12;49.30;;;45.13;;
25111;SDS011;13092;51.996;4.458;2023-12-28T05:09:50;50.10;;;45.38;;
25111;SDS011;13092;51.996;4.458;2023-12-28T05:12:35;47.22;;;43.17;;
25111;SDS011;13092;51.996;4.458;2023-12-28T05:15:21;47.85;;;43.75;;
25111;SDS011;13092;51.996;4.458;2023-12-28T05:17:54;45.83;;;42.08;;
25111;SDS011;13092;51.996;4.458;2023-12-28T05:20:30;46.65;;;42.90;;
25111;SDS011;13092;51.996;4.458;2023-12-28T05:26:57;48.63;;;44.40;;
25111;SDS011;13092;51.996;4.458;2023-12-28T05:30:00;47.40;;;43.38;;
25111;SDS011;13092;51.996;4.458;2023-12-28T05:32:55;48.47;;;44.28;;
25111;SDS011;13092;51.996;4.458;2023-12-28T05:39:03;52.17;;;47.63;;
25111;SDS011;13092;51.996;4.458;2023-12-28T05:42:07;48.25;;;44.35;;
25111;SDS011;13092;51.996;4.458;2023-12-28T05:44:58;47.08;;;43.03;;
25111;SDS011;13092;51.996;4.458;2023-12-28T05:47:47;48.88;;;44.25;;
25111;SDS011;13092;51.996;4.458;2023-12-28T05:50:41;49.28;;;45.03;;
25111;SDS011;13092;51.996;4.458;2023-12-28T05:53:33;49.70;;;45.30;;
25111;SDS011;13092;51.996;4.458;2023-12-28T05:56:54;48.17;;;43.35;;
25111;SDS011;13092;51.996;4.458;2023-12-28T05:59:39;47.83;;;43.30;;
25111;SDS011;13092;51.996;4.458;2023-12-28T06:02:13;47.55;;;43.40;;
25111;SDS011;13092;51.996;4.458;2023-12-28T06:05:19;47.03;;;43.10;;
25111;SDS011;13092;51.996;4.458;2023-12-28T06:07:57;47.40;;;43.13;;
25111;SDS011;13092;51.996;4.458;2023-12-28T06:10:46;47.63;;;42.90;;
25111;SDS011;13092;51.996;4.458;2023-12-28T06:16:40;48.08;;;43.88;;
25111;SDS011;13092;51.996;4.458;2023-12-28T06:19:16;48.20;;;44.20;;
25111;SDS011;13092;51.996;4.458;2023-12-28T06:22:16;47.22;;;43.38;;
25111;SDS011;13092;51.996;4.458;2023-12-28T06:25:57;48.17;;;44.13;;
25111;SDS011;13092;51.996;4.458;2023-12-28T06:29:14;47.88;;;43.75;;
25111;SDS011;13092;51.996;4.458;2023-12-28T06:39:53;47.03;;;42.60;;
25111;SDS011;13092;51.996;4.458;2023-12-28T06:44:02;47.33;;;41.72;;
25111;SDS011;13092;51.996;4.458;2023-12-28T06:46:52;44.75;;;40.75;;
25111;SDS011;13092;51.996;4.458;2023-12-28T06:55:48;44.95;;;41.15;;
25111;SDS011;13092;51.996;4.458;2023-12-28T06:59:36;48.00;;;43.97;;
25111;SDS011;13092;51.996;4.458;2023-12-28T07:24:10;48.97;;;45.17;;
25111;SDS011;13092;51.996;4.458;2023-12-28T07:35:18;45.92;;;42.03;;
25111;SDS011;13092;51.996;4.458;2023-12-28T07:41:58;45.40;;;41.58;;
25111;SDS011;13092;51.996;4.458;2023-12-28T07:44:26;45.53;;;41.28;;
25111;SDS011;13092;51.996;4.458;2023-12-28T07:46:54;45.08;;;40.88;;
25111;SDS011;13092;51.996;4.458;2023-12-28T07:49:23;47.88;;;43.53;;
25111;SDS011;13092;51.996;4.458;2023-12-28T07:51:54;48.75;;;44.42;;
25111;SDS011;13092;51.996;4.458;2023-12-28T08:30:18;43.15;;;39.47;;
25111;SDS011;13092;51.996;4.458;2023-12-28T08:33:33;42.05;;;38.40;;
25111;SDS011;13092;51.996;4.458;2023-12-28T08:36:25;44.63;;;40.08;;
25111;SDS011;13092;51.996;4.458;2023-12-28T08:39:35;46.22;;;41.35;;
25111;SDS011;13092;51.996;4.458;2023-12-28T08:42:39;43.38;;;39.47;;
25111;SDS011;13092;51.996;4.458;2023-12-28T09:35:24;45.30;;;41.10;;
25111;SDS011;13092;51.996;4.458;2023-12-28T09:43:15;46.80;;;42.08;;
25111;SDS011;13092;51.996;4.458;2023-12-28T10:07:39;44.60;;;40.40;;
25111;SDS011;13092;51.996;4.458;2023-12-28T10:10:12;46.13;;;41.83;;
25111;SDS011;13092;51.996;4.458;2023-12-28T10:12:42;45.03;;;40.40;;
25111;SDS011;13092;51.996;4.458;2023-12-28T10:15:20;42.97;;;38.80;;
25111;SDS011;13092;51.996;4.458;2023-12-28T10:18:05;44.22;;;40.35;;
25111;SDS011;13092;51.996;4.458;2023-12-28T10:21:14;42.88;;;39.13;;
25111;SDS011;13092;51.996;4.458;2023-12-28T10:32:04;43.17;;;39.35;;
25111;SDS011;13092;51.996;4.458;2023-12-28T11:17:43;44.78;;;40.63;;
25111;SDS011;13092;51.996;4.458;2023-12-28T11:26:17;46.92;;;42.22;;
25111;SDS011;13092;51.996;4.458;2023-12-28T11:40:53;44.83;;;40.92;;
25111;SDS011;13092;51.996;4.458;2023-12-28T12:53:34;44.33;;;40.22;;
25111;SDS011;13092;51.996;4.458;2023-12-28T12:57:56;45.08;;;40.42;;
25111;SDS011;13092;51.996;4.458;2023-12-28T13:00:35;46.05;;;42.00;;
25111;SDS011;13092;51.996;4.458;2023-12-28T13:06:46;44.65;;;40.40;;
25111;SDS011;13092;51.996;4.458;2023-12-28T13:09:57;43.70;;;39.95;;
25111;SDS011;13092;51.996;4.458;2023-12-28T13:14:26;45.20;;;40.80;;
25111;SDS011;13092;51.996;4.458;2023-12-28T13:17:04;45.22;;;40.88;;
25111;SDS011;13092;51.996;4.458;2023-12-28T13:20:12;46.47;;;42.20;;
25111;SDS011;13092;51.996;4.458;2023-12-28T13:23:13;46.70;;;42.30;;
25111;SDS011;13092;51.996;4.458;2023-12-28T13:29:04;48.05;;;43.20;;
25111;SDS011;13092;51.996;4.458;2023-12-28T13:39:15;47.60;;;43.17;;
25111;SDS011;13092;51.996;4.458;2023-12-28T13:45:31;45.63;;;41.30;;
25111;SDS011;13092;51.996;4.458;2023-12-28T13:48:52;46.45;;;41.80;;
25111;SDS011;13092;51.996;4.458;2023-12-28T13:51:54;47.80;;;42.85;;
25111;SDS011;13092;51.996;4.458;2023-12-28T13:58:17;45.88;;;41.13;;
25111;SDS011;13092;51.996;4.458;2023-12-28T14:04:45;50.63;;;45.78;;
25111;SDS011;13092;51.996;4.458;2023-12-28T14:08:01;48.63;;;43.97;;
25111;SDS011;13092;51.996;4.458;2023-12-28T14:11:07;48.38;;;43.47;;
25111;SDS011;13092;51.996;4.458;2023-12-28T14:13:38;48.10;;;43.47;;
25111;SDS011;13092;51.996;4.458;2023-12-28T14:16:06;50.58;;;45.33;;
25111;SDS011;13092;51.996;4.458;2023-12-28T14:18:35;49.60;;;44.97;;
25111;SDS011;13092;51.996;4.458;2023-12-28T14:21:06;49.42;;;44.85;;
25111;SDS011;13092;51.996;4.458;2023-12-28T14:23:35;49.60;;;44.67;;
25111;SDS011;13092;51.996;4.458;2023-12-28T14:26:04;51.03;;;46.60;;
25111;SDS011;13092;51.996;4.458;2023-12-28T14:28:41;51.45;;;46.00;;
25111;SDS011;13092;51.996;4.458;2023-12-28T14:31:10;49.13;;;43.53;;
25111;SDS011;13092;51.996;4.458;2023-12-28T14:33:42;49.08;;;44.47;;
25111;SDS011;13092;51.996;4.458;2023-12-28T14:36:45;47.50;;;43.00;;
25111;SDS011;13092;51.996;4.458;2023-12-28T14:39:16;48.63;;;44.35;;
25111;SDS011;13092;51.996;4.458;2023-12-28T14:41:45;47.47;;;43.28;;
25111;SDS011;13092;51.996;4.458;2023-12-28T14:44:21;48.92;;;44.63;;
25111;SDS011;13092;51.996;4.458;2023-12-28T14:47:04;47.65;;;43.15;;
25111;SDS011;13092;51.996;4.458;2023-12-28T14:49:32;45.35;;;40.75;;
25111;SDS011;13092;51.996;4.458;2023-12-28T14:52:01;43.17;;;39.20;;
25111;SDS011;13092;51.996;4.458;2023-12-28T14:54:29;44.47;;;40.47;;
25111;SDS011;13092;51.996;4.458;2023-12-28T14:56:58;45.08;;;41.15;;
25111;SDS011;13092;51.996;4.458;2023-12-28T14:59:36;43.35;;;39.55;;
25111;SDS011;13092;51.996;4.458;2023-12-28T15:02:07;42.47;;;38.60;;
25111;SDS011;13092;51.996;4.458;2023-12-28T15:04:36;43.42;;;39.42;;
25111;SDS011;13092;51.996;4.458;2023-12-28T15:07:10;42.10;;;38.75;;
25111;SDS011;13092;51.996;4.458;2023-12-28T15:09:41;43.08;;;39.08;;
25111;SDS011;13092;51.996;4.458;2023-12-28T15:12:10;40.90;;;37.33;;
25111;SDS011;13092;51.996;4.458;2023-12-28T15:14:41;42.75;;;38.72;;
25111;SDS011;13092;51.996;4.458;2023-12-28T15:17:10;44.00;;;40.15;;
25111;SDS011;13092;51.996;4.458;2023-12-28T15:19:39;43.58;;;39.72;;
25111;SDS011;13092;51.996;4.458;2023-12-28T15:22:08;42.97;;;39.15;;
25111;SDS011;13092;51.996;4.458;2023-12-28T15:24:37;43.03;;;39.10;;
25111;SDS011;13092;51.996;4.458;2023-12-28T15:27:06;42.05;;;38.15;;
25111;SDS011;13092;51.996;4.458;2023-12-28T15:29:34;41.63;;;37.58;;
25111;SDS011;13092;51.996;4.458;2023-12-28T15:32:04;40.38;;;36.47;;
25111;SDS011;13092;51.996;4.458;2023-12-28T15:34:33;39.25;;;35.90;;
25111;SDS011;13092;51.996;4.458;2023-12-28T15:37:02;39.38;;;35.90;;
25111;SDS011;13092;51.996;4.458;2023-12-28T15:39:30;39.38;;;35.80;;
25111;SDS011;13092;51.996;4.458;2023-12-28T15:42:03;39.17;;;35.70;;
25111;SDS011;13092;51.996;4.458;2023-12-28T15:44:31;39.38;;;36.00;;
25111;SDS011;13092;51.996;4.458;2023-12-28T15:47:11;41.08;;;36.47;;
25111;SDS011;13092;51.996;4.458;2023-12-28T15:49:40;38.78;;;34.95;;
25111;SDS011;13092;51.996;4.458;2023-12-28T15:52:08;38.92;;;35.22;;
25111;SDS011;13092;51.996;4.458;2023-12-28T15:54:36;39.38;;;35.72;;
25111;SDS011;13092;51.996;4.458;2023-12-28T15:57:04;38.75;;;35.20;;
25111;SDS011;13092;51.996;4.458;2023-12-28T15:59:33;39.10;;;35.65;;
25111;SDS011;13092;51.996;4.458;2023-12-28T16:02:01;38.88;;;35.22;;
25111;SDS011;13092;51.996;4.458;2023-12-28T16:04:33;39.63;;;35.58;;
25111;SDS011;13092;51.996;4.458;2023-12-28T16:07:02;39.85;;;36.45;;
25111;SDS011;13092;51.996;4.458;2023-12-28T16:09:30;39.83;;;36.33;;
25111;SDS011;13092;51.996;4.458;2023-12-28T16:12:13;39.42;;;36.10;;
25111;SDS011;13092;51.996;4.458;2023-12-28T16:14:48;39.95;;;36.28;;
25111;SDS011;13092;51.996;4.458;2023-12-28T16:17:23;39.45;;;35.88;;
25111;SDS011;13092;51.996;4.458;2023-12-28T16:19:53;39.42;;;35.88;;
25111;SDS011;13092;51.996;4.458;2023-12-28T16:22:22;38.60;;;35.10;;
25111;SDS011;13092;51.996;4.458;2023-12-28T16:24:51;38.72;;;35.30;;
25111;SDS011;13092;51.996;4.458;2023-12-28T16:27:19;40.05;;;36.40;;
25111;SDS011;13092;51.996;4.458;2023-12-28T16:29:48;38.28;;;34.83;;
25111;SDS011;13092;51.996;4.458;2023-12-28T16:32:16;39.13;;;35.63;;
25111;SDS011;13092;51.996;4.458;2023-12-28T16:34:44;37.63;;;34.15;;
25111;SDS011;13092;51.996;4.458;2023-12-28T16:37:14;39.22;;;35.08;;
25111;SDS011;13092;51.996;4.458;2023-12-28T16:39:44;38.45;;;35.45;;
25111;SDS011;13092;51.996;4.458;2023-12-28T16:42:12;38.45;;;34.83;;
25111;SDS011;13092;51.996;4.458;2023-12-28T16:44:41;38.05;;;34.67;;
25111;SDS011;13092;51.996;4.458;2023-12-28T16:47:10;36.95;;;32.97;;
25111;SDS011;13092;51.996;4.458;2023-12-28T16:49:38;35.90;;;32.55;;
25111;SDS011;13092;51.996;4.458;2023-12-28T16:52:07;38.53;;;34.83;;
25111;SDS011;13092;51.996;4.458;2023-12-28T16:54:37;37.15;;;33.35;;
25111;SDS011;13092;51.996;4.458;2023-12-28T16:57:06;37.75;;;34.42;;
25111;SDS011;13092;51.996;4.458;2023-12-28T16:59:35;37.92;;;34.40;;
25111;SDS011;13092;51.996;4.458;2023-12-28T17:02:03;39.70;;;35.38;;
25111;SDS011;13092;51.996;4.458;2023-12-28T17:04:32;38.10;;;34.72;;
25111;SDS011;13092;51.996;4.458;2023-12-28T17:07:02;37.80;;;34.50;;
25111;SDS011;13092;51.996;4.458;2023-12-28T17:09:32;37.47;;;34.10;;
25111;SDS011;13092;51.996;4.458;2023-12-28T17:12:06;37.40;;;34.10;;
25111;SDS011;13092;51.996;4.458;2023-12-28T17:14:40;39.13;;;35.05;;
25111;SDS011;13092;51.996;4.458;2023-12-28T17:17:08;37.35;;;33.92;;
25111;SDS011;13092;51.996;4.458;2023-12-28T17:19:37;37.90;;;33.95;;
25111;SDS011;13092;51.996;4.458;2023-12-28T17:22:06;37.22;;;33.80;;
25111;SDS011;13092;51.996;4.458;2023-12-28T17:24:40;36.85;;;33.63;;
25111;SDS011;13092;51.996;4.458;2023-12-28T17:27:17;38.40;;;34.78;;
25111;SDS011;13092;51.996;4.458;2023-12-28T17:29:52;38.50;;;35.08;;
25111;SDS011;13092;51.996;4.458;2023-12-28T17:32:30;38.83;;;35.03;;
25111;SDS011;13092;51.996;4.458;2023-12-28T17:35:01;38.17;;;34.63;;
25111;SDS011;13092;51.996;4.458;2023-12-28T17:37:33;38.70;;;35.28;;
25111;SDS011;13092;51.996;4.458;2023-12-28T17:40:02;38.97;;;35.47;;
25111;SDS011;13092;51.996;4.458;2023-12-28T17:42:33;39.45;;;35.63;;
25111;SDS011;13092;51.996;4.458;2023-12-28T17:45:05;38.70;;;35.10;;
25111;SDS011;13092;51.996;4.458;2023-12-28T17:47:39;38.47;;;35.00;;
25111;SDS011;13092;51.996;4.458;2023-12-28T17:50:13;39.13;;;34.92;;
25111;SDS011;13092;51.996;4.458;2023-12-28T17:52:47;38.70;;;35.28;;
25111;SDS011;13092;51.996;4.458;2023-12-28T17:55:15;40.80;;;36.95;;
25111;SDS011;13092;51.996;4.458;2023-12-28T17:57:45;38.95;;;34.97;;
25111;SDS011;13092;51.996;4.458;2023-12-28T18:00:14;40.30;;;36.03;;
25111;SDS011;13092;51.996;4.458;2023-12-28T18:02:43;39.33;;;35.70;;
25111;SDS011;13092;51.996;4.458;2023-12-28T18:05:12;42.03;;;35.95;;
25111;SDS011;13092;51.996;4.458;2023-12-28T18:07:40;40.53;;;36.65;;
25111;SDS011;13092;51.996;4.458;2023-12-28T18:10:09;39.90;;;35.67;;
25111;SDS011;13092;51.996;4.458;2023-12-28T18:12:40;38.75;;;34.75;;
25111;SDS011;13092;51.996;4.458;2023-12-28T18:15:10;46.10;;;36.17;;
25111;SDS011;13092;51.996;4.458;2023-12-28T18:17:46;39.97;;;35.75;;
25111;SDS011;13092;51.996;4.458;2023-12-28T18:20:24;40.33;;;36.03;;
25111;SDS011;13092;51.996;4.458;2023-12-28T18:22:53;39.97;;;35.63;;
25111;SDS011;13092;51.996;4.458;2023-12-28T18:25:21;39.83;;;35.83;;
25111;SDS011;13092;51.996;4.458;2023-12-28T18:27:51;38.67;;;35.08;;
25111;SDS011;13092;51.996;4.458;2023-12-28T18:30:25;40.17;;;36.40;;
25111;SDS011;13092;51.996;4.458;2023-12-28T18:33:06;41.65;;;36.33;;
25111;SDS011;13092;51.996;4.458;2023-12-28T18:35:36;40.35;;;36.40;;
25111;SDS011;13092;51.996;4.458;2023-12-28T18:38:05;41.50;;;37.22;;
25111;SDS011;13092;51.996;4.458;2023-12-28T18:40:33;41.45;;;37.40;;
25111;SDS011;13092;51.996;4.458;2023-12-28T18:43:04;40.88;;;37.00;;
25111;SDS011;13092;51.996;4.458;2023-12-28T18:45:34;41.53;;;37.45;;
25111;SDS011;13092;51.996;4.458;2023-12-28T18:48:03;41.28;;;36.90;;
25111;SDS011;13092;51.996;4.458;2023-12-28T18:50:38;41.10;;;37.17;;
25111;SDS011;13092;51.996;4.458;2023-12-28T18:53:07;41.80;;;37.72;;
25111;SDS011;13092;51.996;4.458;2023-12-28T18:55:40;42.47;;;38.33;;
25111;SDS011;13092;51.996;4.458;2023-12-28T18:58:09;41.28;;;37.38;;
25111;SDS011;13092;51.996;4.458;2023-12-28T19:00:40;40.30;;;36.60;;
25111;SDS011;13092;51.996;4.458;2023-12-28T19:03:08;41.78;;;37.28;;
25111;SDS011;13092;51.996;4.458;2023-12-28T19:05:36;40.72;;;37.13;;
25111;SDS011;13092;51.996;4.458;2023-12-28T19:08:10;41.25;;;37.15;;
25111;SDS011;13092;51.996;4.458;2023-12-28T19:10:38;40.95;;;37.15;;
25111;SDS011;13092;51.996;4.458;2023-12-28T19:13:06;40.70;;;37.15;;
25111;SDS011;13092;51.996;4.458;2023-12-28T19:15:34;42.85;;;37.83;;
25111;SDS011;13092;51.996;4.458;2023-12-28T19:18:09;41.92;;;38.05;;
25111;SDS011;13092;51.996;4.458;2023-12-28T19:20:49;42.10;;;38.33;;
25111;SDS011;13092;51.996;4.458;2023-12-28T19:23:20;42.45;;;38.38;;
25111;SDS011;13092;51.996;4.458;2023-12-28T19:25:49;41.47;;;37.85;;
25111;SDS011;13092;51.996;4.458;2023-12-28T19:28:43;43.42;;;38.88;;
25111;SDS011;13092;51.996;4.458;2023-12-28T19:31:43;40.47;;;36.75;;
25111;SDS011;13092;51.996;4.458;2023-12-28T19:34:13;42.92;;;38.67;;
25111;SDS011;13092;51.996;4.458;2023-12-28T19:36:45;41.53;;;37.85;;
25111;SDS011;13092;51.996;4.458;2023-12-28T19:39:13;41.45;;;38.00;;
25111;SDS011;13092;51.996;4.458;2023-12-28T19:41:43;41.95;;;37.90;;
25111;SDS011;13092;51.996;4.458;2023-12-28T19:44:11;43.40;;;39.10;;
25111;SDS011;13092;51.996;4.458;2023-12-28T19:46:40;43.13;;;38.95;;
25111;SDS011;13092;51.996;4.458;2023-12-28T19:49:08;43.08;;;39.38;;
25111;SDS011;13092;51.996;4.458;2023-12-28T19:54:26;45.65;;;41.42;;
25111;SDS011;13092;51.996;4.458;2023-12-28T19:56:54;45.55;;;41.30;;
25111;SDS011;13092;51.996;4.458;2023-12-28T19:59:24;43.45;;;39.63;;
25111;SDS011;13092;51.996;4.458;2023-12-28T20:01:52;44.08;;;39.65;;
25111;SDS011;13092;51.996;4.458;2023-12-28T20:04:23;43.55;;;39.97;;
25111;SDS011;13092;51.996;4.458;2023-12-28T20:06:52;44.42;;;40.22;;
25111;SDS011;13092;51.996;4.458;2023-12-28T20:09:26;44.55;;;40.05;;
25111;SDS011;13092;51.996;4.458;2023-12-28T20:12:02;42.83;;;38.70;;
25111;SDS011;13092;51.996;4.458;2023-12-28T20:14:37;44.55;;;40.95;;
25111;SDS011;13092;51.996;4.458;2023-12-28T20:17:09;43.20;;;39.30;;
25111;SDS011;13092;51.996;4.458;2023-12-28T20:20:05;42.15;;;38.42;;
25111;SDS011;13092;51.996;4.458;2023-12-28T20:22:44;43.72;;;39.95;;
25111;SDS011;13092;51.996;4.458;2023-12-28T20:25:17;43.30;;;39.70;;
25111;SDS011;13092;51.996;4.458;2023-12-28T20:27:48;42.65;;;39.17;;
25111;SDS011;13092;51.996;4.458;2023-12-28T20:30:17;42.45;;;39.00;;
25111;SDS011;13092;51.996;4.458;2023-12-28T20:32:47;44.65;;;40.60;;
25111;SDS011;13092;51.996;4.458;2023-12-28T20:35:17;44.85;;;41.15;;
25111;SDS011;13092;51.996;4.458;2023-12-28T20:37:47;43.85;;;40.08;;
25111;SDS011;13092;51.996;4.458;2023-12-28T20:40:18;42.97;;;39.38;;
25111;SDS011;13092;51.996;4.458;2023-12-28T20:42:46;43.55;;;39.58;;
25111;SDS011;13092;51.996;4.458;2023-12-28T20:45:17;42.20;;;38.78;;
25111;SDS011;13092;51.996;4.458;2023-12-28T20:47:45;44.38;;;39.95;;
25111;SDS011;13092;51.996;4.458;2023-12-28T20:50:15;45.65;;;41.67;;
25111;SDS011;13092;51.996;4.458;2023-12-28T20:52:44;44.10;;;40.22;;
25111;SDS011;13092;51.996;4.458;2023-12-28T20:55:12;44.35;;;40.50;;
25111;SDS011;13092;51.996;4.458;2023-12-28T20:57:42;44.72;;;41.00;;